sensor_id;sensor_type;location;lat;lon;timestamp;temperature;humidity
7030;DHT22;3556;53.500;10.176;2024-01-30T00:01:42;3.50;1.00
7030;DHT22;3556;53.500;10.176;2024-01-30T00:04:07;3.50;1.00
7030;DHT22;3556;53.500;10.176;2024-01-30T00:06:33;3.50;1.00
7030;DHT22;3556;53.500;10.176;2024-01-30T00:08:58;3.50;1.00
7030;DHT22;3556;53.500;10.176;2024-01-30T00:11:24;3.40;1.00
7030;DHT22;3556;53.500;10.176;2024-01-30T00:13:51;3.40;1.00
7030;DHT22;3556;53.500;10.176;2024-01-30T00:16:21;3.40;1.00
7030;DHT22;3556;53.500;10.176;2024-01-30T00:18:47;3.40;1.00
7030;DHT22;3556;53.500;10.176;2024-01-30T00:21:13;3.40;1.00
7030;DHT22;3556;53.500;10.176;2024-01-30T00:23:38;3.40;1.00
7030;DHT22;3556;53.500;10.176;2024-01-30T00:26:04;3.40;1.00
7030;DHT22;3556;53.500;10.176;2024-01-30T00:28:30;3.40;1.00
7030;DHT22;3556;53.500;10.176;2024-01-30T00:30:56;3.40;1.00
7030;DHT22;3556;53.500;10.176;2024-01-30T00:33:22;3.30;1.00
7030;DHT22;3556;53.500;10.176;2024-01-30T00:35:47;3.30;1.00
7030;DHT22;3556;53.500;10.176;2024-01-30T00:38:13;3.30;1.00
7030;DHT22;3556;53.500;10.176;2024-01-30T00:40:39;3.20;1.00
7030;DHT22;3556;53.500;10.176;2024-01-30T00:43:04;3.20;1.00
7030;DHT22;3556;53.500;10.176;2024-01-30T00:45:30;3.20;1.00
7030;DHT22;3556;53.500;10.176;2024-01-30T00:47:55;3.10;1.00
7030;DHT22;3556;53.500;10.176;2024-01-30T00:50:21;3.10;1.00
7030;DHT22;3556;53.500;10.176;2024-01-30T00:52:47;3.10;1.00
7030;DHT22;3556;53.500;10.176;2024-01-30T00:55:12;3.00;18.50
7030;DHT22;3556;53.500;10.176;2024-01-30T00:57:39;3.00;54.90
7030;DHT22;3556;53.500;10.176;2024-01-30T01:00:05;3.00;90.20
7030;DHT22;3556;53.500;10.176;2024-01-30T01:02:34;3.00;99.80
7030;DHT22;3556;53.500;10.176;2024-01-30T01:05:00;2.90;99.90
7030;DHT22;3556;53.500;10.176;2024-01-30T01:07:25;2.90;99.90
7030;DHT22;3556;53.500;10.176;2024-01-30T01:09:51;2.90;99.90
7030;DHT22;3556;53.500;10.176;2024-01-30T01:12:17;2.90;99.90
7030;DHT22;3556;53.500;10.176;2024-01-30T01:14:42;2.80;99.90
7030;DHT22;3556;53.500;10.176;2024-01-30T01:17:08;2.90;99.90
7030;DHT22;3556;53.500;10.176;2024-01-30T01:19:34;2.80;99.90
7030;DHT22;3556;53.500;10.176;2024-01-30T01:21:59;2.80;99.90
7030;DHT22;3556;53.500;10.176;2024-01-30T01:24:25;2.80;99.90
7030;DHT22;3556;53.500;10.176;2024-01-30T01:26:51;2.80;99.90
7030;DHT22;3556;53.500;10.176;2024-01-30T01:29:16;2.90;99.90
7030;DHT22;3556;53.500;10.176;2024-01-30T01:31:42;2.90;99.90
7030;DHT22;3556;53.500;10.176;2024-01-30T01:34:11;2.90;99.90
7030;DHT22;3556;53.500;10.176;2024-01-30T01:36:37;2.90;99.90
7030;DHT22;3556;53.500;10.176;2024-01-30T01:39:03;2.90;99.90
7030;DHT22;3556;53.500;10.176;2024-01-30T01:41:32;2.90;99.90
7030;DHT22;3556;53.500;10.176;2024-01-30T01:43:59;2.90;99.90
7030;DHT22;3556;53.500;10.176;2024-01-30T01:46:27;2.90;99.90
7030;DHT22;3556;53.500;10.176;2024-01-30T01:48:53;2.90;99.90
7030;DHT22;3556;53.500;10.176;2024-01-30T01:51:19;2.90;99.90
7030;DHT22;3556;53.500;10.176;2024-01-30T01:53:45;2.90;99.90
7030;DHT22;3556;53.500;10.176;2024-01-30T01:56:11;2.90;99.90
7030;DHT22;3556;53.500;10.176;2024-01-30T01:58:37;2.90;99.90
7030;DHT22;3556;53.500;10.176;2024-01-30T02:01:04;2.80;99.90
7030;DHT22;3556;53.500;10.176;2024-01-30T02:03:30;2.80;99.90
7030;DHT22;3556;53.500;10.176;2024-01-30T02:05:56;2.80;99.90
7030;DHT22;3556;53.500;10.176;2024-01-30T02:08:25;2.70;99.90
7030;DHT22;3556;53.500;10.176;2024-01-30T02:10:51;2.70;99.90
7030;DHT22;3556;53.500;10.176;2024-01-30T02:13:17;2.70;99.90
7030;DHT22;3556;53.500;10.176;2024-01-30T02:15:42;2.70;99.90
7030;DHT22;3556;53.500;10.176;2024-01-30T02:18:08;2.60;99.90
7030;DHT22;3556;53.500;10.176;2024-01-30T02:20:35;2.60;99.90
7030;DHT22;3556;53.500;10.176;2024-01-30T02:23:01;2.50;99.90
7030;DHT22;3556;53.500;10.176;2024-01-30T02:25:38;2.50;99.90
7030;DHT22;3556;53.500;10.176;2024-01-30T02:28:04;2.50;99.90
7030;DHT22;3556;53.500;10.176;2024-01-30T02:30:30;2.50;99.90
7030;DHT22;3556;53.500;10.176;2024-01-30T02:32:55;2.50;99.90
7030;DHT22;3556;53.500;10.176;2024-01-30T02:35:21;2.50;99.90
7030;DHT22;3556;53.500;10.176;2024-01-30T02:37:47;2.50;99.90
7030;DHT22;3556;53.500;10.176;2024-01-30T02:40:12;2.60;99.90
7030;DHT22;3556;53.500;10.176;2024-01-30T02:42:39;2.60;99.90
7030;DHT22;3556;53.500;10.176;2024-01-30T02:45:05;2.60;99.90
7030;DHT22;3556;53.500;10.176;2024-01-30T02:47:31;2.70;99.90
7030;DHT22;3556;53.500;10.176;2024-01-30T02:49:56;2.70;99.90
7030;DHT22;3556;53.500;10.176;2024-01-30T02:52:22;2.80;99.90
7030;DHT22;3556;53.500;10.176;2024-01-30T02:54:47;2.80;99.90
7030;DHT22;3556;53.500;10.176;2024-01-30T02:57:13;2.80;99.90
7030;DHT22;3556;53.500;10.176;2024-01-30T02:59:39;2.80;99.90
7030;DHT22;3556;53.500;10.176;2024-01-30T03:02:04;2.80;99.90
7030;DHT22;3556;53.500;10.176;2024-01-30T03:04:30;2.90;99.90
7030;DHT22;3556;53.500;10.176;2024-01-30T03:06:56;2.90;99.90
7030;DHT22;3556;53.500;10.176;2024-01-30T03:09:22;3.00;99.90
7030;DHT22;3556;53.500;10.176;2024-01-30T03:11:47;2.90;99.90
7030;DHT22;3556;53.500;10.176;2024-01-30T03:14:13;3.00;99.90
7030;DHT22;3556;53.500;10.176;2024-01-30T03:16:38;3.00;99.90
7030;DHT22;3556;53.500;10.176;2024-01-30T03:19:06;3.00;99.90
7030;DHT22;3556;53.500;10.176;2024-01-30T03:21:33;3.00;99.90
7030;DHT22;3556;53.500;10.176;2024-01-30T03:23:59;3.00;99.90
7030;DHT22;3556;53.500;10.176;2024-01-30T03:26:25;3.00;99.90
7030;DHT22;3556;53.500;10.176;2024-01-30T03:28:50;3.00;99.90
7030;DHT22;3556;53.500;10.176;2024-01-30T03:31:16;3.00;99.90
7030;DHT22;3556;53.500;10.176;2024-01-30T03:33:42;3.00;99.90
7030;DHT22;3556;53.500;10.176;2024-01-30T03:36:08;3.00;99.90
7030;DHT22;3556;53.500;10.176;2024-01-30T03:38:34;3.10;99.90
7030;DHT22;3556;53.500;10.176;2024-01-30T03:41:00;3.10;99.90
7030;DHT22;3556;53.500;10.176;2024-01-30T03:43:26;3.10;99.90
7030;DHT22;3556;53.500;10.176;2024-01-30T03:45:51;3.10;99.90
7030;DHT22;3556;53.500;10.176;2024-01-30T03:48:17;3.10;99.90
7030;DHT22;3556;53.500;10.176;2024-01-30T03:50:43;3.00;99.90
7030;DHT22;3556;53.500;10.176;2024-01-30T03:53:09;3.00;99.90
7030;DHT22;3556;53.500;10.176;2024-01-30T03:55:34;3.00;99.90
7030;DHT22;3556;53.500;10.176;2024-01-30T03:58:00;3.00;99.90
7030;DHT22;3556;53.500;10.176;2024-01-30T04:00:26;2.90;99.90
7030;DHT22;3556;53.500;10.176;2024-01-30T04:02:52;2.90;99.90
7030;DHT22;3556;53.500;10.176;2024-01-30T04:05:17;2.80;99.90
7030;DHT22;3556;53.500;10.176;2024-01-30T04:07:43;2.80;99.90
7030;DHT22;3556;53.500;10.176;2024-01-30T04:10:10;2.70;99.90
7030;DHT22;3556;53.500;10.176;2024-01-30T04:12:36;2.70;99.90
7030;DHT22;3556;53.500;10.176;2024-01-30T04:15:02;2.70;99.90
7030;DHT22;3556;53.500;10.176;2024-01-30T04:17:28;2.70;99.90
7030;DHT22;3556;53.500;10.176;2024-01-30T04:19:54;2.70;99.90
7030;DHT22;3556;53.500;10.176;2024-01-30T04:22:20;2.70;99.90
7030;DHT22;3556;53.500;10.176;2024-01-30T04:24:46;2.70;99.90
7030;DHT22;3556;53.500;10.176;2024-01-30T04:27:12;2.80;99.90
7030;DHT22;3556;53.500;10.176;2024-01-30T04:29:37;2.90;99.90
7030;DHT22;3556;53.500;10.176;2024-01-30T04:32:03;2.90;99.90
7030;DHT22;3556;53.500;10.176;2024-01-30T04:34:29;2.90;99.90
7030;DHT22;3556;53.500;10.176;2024-01-30T04:36:55;3.00;99.90
7030;DHT22;3556;53.500;10.176;2024-01-30T04:39:20;3.00;99.90
7030;DHT22;3556;53.500;10.176;2024-01-30T04:41:46;3.00;99.90
7030;DHT22;3556;53.500;10.176;2024-01-30T04:44:11;3.10;99.90
7030;DHT22;3556;53.500;10.176;2024-01-30T04:46:37;3.10;99.90
7030;DHT22;3556;53.500;10.176;2024-01-30T04:49:03;3.10;99.90
7030;DHT22;3556;53.500;10.176;2024-01-30T04:51:29;3.10;99.90
7030;DHT22;3556;53.500;10.176;2024-01-30T04:53:55;3.10;99.90
7030;DHT22;3556;53.500;10.176;2024-01-30T04:56:21;3.10;99.90
7030;DHT22;3556;53.500;10.176;2024-01-30T04:58:47;3.10;99.90
7030;DHT22;3556;53.500;10.176;2024-01-30T05:01:16;3.10;99.90
7030;DHT22;3556;53.500;10.176;2024-01-30T05:03:42;3.10;99.90
7030;DHT22;3556;53.500;10.176;2024-01-30T05:06:07;3.10;99.90
7030;DHT22;3556;53.500;10.176;2024-01-30T05:08:33;3.10;99.90
7030;DHT22;3556;53.500;10.176;2024-01-30T05:11:02;3.10;99.90
7030;DHT22;3556;53.500;10.176;2024-01-30T05:13:30;3.00;99.90
7030;DHT22;3556;53.500;10.176;2024-01-30T05:15:55;3.00;99.90
7030;DHT22;3556;53.500;10.176;2024-01-30T05:18:21;3.00;99.90
7030;DHT22;3556;53.500;10.176;2024-01-30T05:20:47;3.00;99.90
7030;DHT22;3556;53.500;10.176;2024-01-30T05:23:12;3.00;99.90
7030;DHT22;3556;53.500;10.176;2024-01-30T05:25:38;3.00;99.90
7030;DHT22;3556;53.500;10.176;2024-01-30T05:28:04;3.00;99.90
7030;DHT22;3556;53.500;10.176;2024-01-30T05:30:30;3.00;99.90
7030;DHT22;3556;53.500;10.176;2024-01-30T05:32:55;3.00;99.90
7030;DHT22;3556;53.500;10.176;2024-01-30T05:35:21;3.00;99.90
7030;DHT22;3556;53.500;10.176;2024-01-30T05:37:48;3.00;99.90
7030;DHT22;3556;53.500;10.176;2024-01-30T05:40:14;3.00;99.90
7030;DHT22;3556;53.500;10.176;2024-01-30T05:42:40;3.00;99.90
7030;DHT22;3556;53.500;10.176;2024-01-30T05:45:06;3.00;99.90
7030;DHT22;3556;53.500;10.176;2024-01-30T05:47:33;3.00;99.90
7030;DHT22;3556;53.500;10.176;2024-01-30T05:49:59;3.00;99.90
7030;DHT22;3556;53.500;10.176;2024-01-30T05:52:24;3.00;99.90
7030;DHT22;3556;53.500;10.176;2024-01-30T05:54:50;2.90;99.90
7030;DHT22;3556;53.500;10.176;2024-01-30T05:57:16;2.90;99.90
7030;DHT22;3556;53.500;10.176;2024-01-30T05:59:42;2.90;99.90
7030;DHT22;3556;53.500;10.176;2024-01-30T06:02:10;3.00;99.90
7030;DHT22;3556;53.500;10.176;2024-01-30T06:04:36;3.00;99.90
7030;DHT22;3556;53.500;10.176;2024-01-30T06:07:02;3.00;99.90
7030;DHT22;3556;53.500;10.176;2024-01-30T06:09:28;3.00;99.90
7030;DHT22;3556;53.500;10.176;2024-01-30T06:11:54;3.00;99.90
7030;DHT22;3556;53.500;10.176;2024-01-30T06:14:20;3.00;99.90
7030;DHT22;3556;53.500;10.176;2024-01-30T06:16:46;3.10;99.90
7030;DHT22;3556;53.500;10.176;2024-01-30T06:19:11;3.10;99.90
7030;DHT22;3556;53.500;10.176;2024-01-30T06:21:37;3.10;99.90
7030;DHT22;3556;53.500;10.176;2024-01-30T06:24:04;3.10;99.90
7030;DHT22;3556;53.500;10.176;2024-01-30T06:26:30;3.10;99.90
7030;DHT22;3556;53.500;10.176;2024-01-30T06:28:55;3.10;99.90
7030;DHT22;3556;53.500;10.176;2024-01-30T06:31:21;3.10;99.90
7030;DHT22;3556;53.500;10.176;2024-01-30T06:33:50;3.10;99.90
7030;DHT22;3556;53.500;10.176;2024-01-30T06:36:16;3.10;99.90
7030;DHT22;3556;53.500;10.176;2024-01-30T06:38:41;3.10;99.90
7030;DHT22;3556;53.500;10.176;2024-01-30T06:41:07;3.20;99.90
7030;DHT22;3556;53.500;10.176;2024-01-30T06:43:33;3.20;99.90
7030;DHT22;3556;53.500;10.176;2024-01-30T06:45:58;3.20;99.90
7030;DHT22;3556;53.500;10.176;2024-01-30T06:48:25;3.20;99.90
7030;DHT22;3556;53.500;10.176;2024-01-30T06:50:53;3.20;99.90
7030;DHT22;3556;53.500;10.176;2024-01-30T06:53:19;3.20;99.90
7030;DHT22;3556;53.500;10.176;2024-01-30T06:55:45;3.30;99.90
7030;DHT22;3556;53.500;10.176;2024-01-30T06:58:11;3.30;99.90
7030;DHT22;3556;53.500;10.176;2024-01-30T07:00:37;3.30;99.90
7030;DHT22;3556;53.500;10.176;2024-01-30T07:03:03;3.30;99.90
7030;DHT22;3556;53.500;10.176;2024-01-30T07:05:28;3.30;99.90
7030;DHT22;3556;53.500;10.176;2024-01-30T07:07:54;3.30;99.90
7030;DHT22;3556;53.500;10.176;2024-01-30T07:10:19;3.40;99.90
7030;DHT22;3556;53.500;10.176;2024-01-30T07:12:45;3.40;99.90
7030;DHT22;3556;53.500;10.176;2024-01-30T07:15:11;3.40;99.90
7030;DHT22;3556;53.500;10.176;2024-01-30T07:17:36;3.40;99.90
7030;DHT22;3556;53.500;10.176;2024-01-30T07:20:03;3.40;99.90
7030;DHT22;3556;53.500;10.176;2024-01-30T07:22:32;3.40;99.90
7030;DHT22;3556;53.500;10.176;2024-01-30T07:24:58;3.40;99.90
7030;DHT22;3556;53.500;10.176;2024-01-30T07:27:24;3.40;99.90
7030;DHT22;3556;53.500;10.176;2024-01-30T07:29:50;3.40;99.90
7030;DHT22;3556;53.500;10.176;2024-01-30T07:32:15;3.50;99.90
7030;DHT22;3556;53.500;10.176;2024-01-30T07:34:41;3.50;99.90
7030;DHT22;3556;53.500;10.176;2024-01-30T07:37:07;3.50;99.90
7030;DHT22;3556;53.500;10.176;2024-01-30T07:39:34;3.60;99.90
7030;DHT22;3556;53.500;10.176;2024-01-30T07:42:00;3.60;99.90
7030;DHT22;3556;53.500;10.176;2024-01-30T07:44:25;3.60;99.90
7030;DHT22;3556;53.500;10.176;2024-01-30T07:46:51;3.60;99.90
7030;DHT22;3556;53.500;10.176;2024-01-30T07:49:16;3.60;99.90
7030;DHT22;3556;53.500;10.176;2024-01-30T07:51:42;3.60;99.90
7030;DHT22;3556;53.500;10.176;2024-01-30T07:54:08;3.70;99.90
7030;DHT22;3556;53.500;10.176;2024-01-30T07:56:34;3.70;99.90
7030;DHT22;3556;53.500;10.176;2024-01-30T07:58:59;3.70;99.90
7030;DHT22;3556;53.500;10.176;2024-01-30T08:01:25;3.70;99.90
7030;DHT22;3556;53.500;10.176;2024-01-30T08:03:51;3.80;99.90
7030;DHT22;3556;53.500;10.176;2024-01-30T08:06:17;3.80;99.90
7030;DHT22;3556;53.500;10.176;2024-01-30T08:08:42;3.80;99.90
7030;DHT22;3556;53.500;10.176;2024-01-30T08:11:08;3.80;99.90
7030;DHT22;3556;53.500;10.176;2024-01-30T08:13:34;3.80;99.90
7030;DHT22;3556;53.500;10.176;2024-01-30T08:15:59;3.90;99.90
7030;DHT22;3556;53.500;10.176;2024-01-30T08:18:25;3.90;99.90
7030;DHT22;3556;53.500;10.176;2024-01-30T08:20:51;4.00;99.90
7030;DHT22;3556;53.500;10.176;2024-01-30T08:23:17;4.00;99.90
7030;DHT22;3556;53.500;10.176;2024-01-30T08:25:43;4.00;99.90
7030;DHT22;3556;53.500;10.176;2024-01-30T08:28:08;4.10;99.90
7030;DHT22;3556;53.500;10.176;2024-01-30T08:30:34;4.10;99.90
7030;DHT22;3556;53.500;10.176;2024-01-30T08:32:59;4.20;99.90
7030;DHT22;3556;53.500;10.176;2024-01-30T08:35:25;4.20;99.90
7030;DHT22;3556;53.500;10.176;2024-01-30T08:37:51;4.20;99.90
7030;DHT22;3556;53.500;10.176;2024-01-30T08:40:16;4.30;99.90
7030;DHT22;3556;53.500;10.176;2024-01-30T08:42:42;4.40;99.90
7030;DHT22;3556;53.500;10.176;2024-01-30T08:45:08;4.40;99.90
7030;DHT22;3556;53.500;10.176;2024-01-30T08:47:34;4.50;99.90
7030;DHT22;3556;53.500;10.176;2024-01-30T08:50:00;4.50;99.90
7030;DHT22;3556;53.500;10.176;2024-01-30T08:52:26;4.60;99.90
7030;DHT22;3556;53.500;10.176;2024-01-30T08:54:51;4.60;99.90
7030;DHT22;3556;53.500;10.176;2024-01-30T08:57:17;4.70;99.90
7030;DHT22;3556;53.500;10.176;2024-01-30T08:59:43;4.70;99.90
7030;DHT22;3556;53.500;10.176;2024-01-30T09:02:11;4.80;99.90
7030;DHT22;3556;53.500;10.176;2024-01-30T09:04:38;4.80;99.90
7030;DHT22;3556;53.500;10.176;2024-01-30T09:07:04;4.90;99.90
7030;DHT22;3556;53.500;10.176;2024-01-30T09:09:33;5.00;99.90
7030;DHT22;3556;53.500;10.176;2024-01-30T09:11:59;5.10;99.90
7030;DHT22;3556;53.500;10.176;2024-01-30T09:14:30;5.10;99.90
7030;DHT22;3556;53.500;10.176;2024-01-30T09:16:56;5.20;99.90
7030;DHT22;3556;53.500;10.176;2024-01-30T09:19:22;5.30;99.90
7030;DHT22;3556;53.500;10.176;2024-01-30T09:21:47;5.30;99.90
7030;DHT22;3556;53.500;10.176;2024-01-30T09:24:13;5.40;99.90
7030;DHT22;3556;53.500;10.176;2024-01-30T09:26:38;5.40;99.90
7030;DHT22;3556;53.500;10.176;2024-01-30T09:29:04;5.50;99.90
7030;DHT22;3556;53.500;10.176;2024-01-30T09:31:30;5.60;99.90
7030;DHT22;3556;53.500;10.176;2024-01-30T09:33:55;5.60;99.90
7030;DHT22;3556;53.500;10.176;2024-01-30T09:36:21;5.70;99.90
7030;DHT22;3556;53.500;10.176;2024-01-30T09:38:47;5.80;99.90
7030;DHT22;3556;53.500;10.176;2024-01-30T09:41:13;5.90;99.90
7030;DHT22;3556;53.500;10.176;2024-01-30T09:43:39;5.90;99.90
7030;DHT22;3556;53.500;10.176;2024-01-30T09:46:05;6.00;99.90
7030;DHT22;3556;53.500;10.176;2024-01-30T09:48:33;6.00;99.90
7030;DHT22;3556;53.500;10.176;2024-01-30T09:50:59;6.10;99.90
7030;DHT22;3556;53.500;10.176;2024-01-30T09:53:25;6.10;99.90
7030;DHT22;3556;53.500;10.176;2024-01-30T09:55:51;6.20;99.90
7030;DHT22;3556;53.500;10.176;2024-01-30T09:58:17;6.30;99.90
7030;DHT22;3556;53.500;10.176;2024-01-30T10:00:43;6.30;99.90
7030;DHT22;3556;53.500;10.176;2024-01-30T10:03:09;6.30;99.90
7030;DHT22;3556;53.500;10.176;2024-01-30T10:05:36;6.40;99.90
7030;DHT22;3556;53.500;10.176;2024-01-30T10:08:08;6.50;99.90
7030;DHT22;3556;53.500;10.176;2024-01-30T10:10:34;6.50;99.90
7030;DHT22;3556;53.500;10.176;2024-01-30T10:13:00;6.60;99.90
7030;DHT22;3556;53.500;10.176;2024-01-30T10:15:28;6.60;99.90
7030;DHT22;3556;53.500;10.176;2024-01-30T10:17:54;6.70;99.90
7030;DHT22;3556;53.500;10.176;2024-01-30T10:20:19;6.80;99.90
7030;DHT22;3556;53.500;10.176;2024-01-30T10:22:47;6.80;99.90
7030;DHT22;3556;53.500;10.176;2024-01-30T10:25:14;6.80;99.90
7030;DHT22;3556;53.500;10.176;2024-01-30T10:27:40;6.80;99.90
7030;DHT22;3556;53.500;10.176;2024-01-30T10:30:06;6.90;99.90
7030;DHT22;3556;53.500;10.176;2024-01-30T10:32:32;7.00;99.90
7030;DHT22;3556;53.500;10.176;2024-01-30T10:34:58;7.00;99.90
7030;DHT22;3556;53.500;10.176;2024-01-30T10:37:25;7.10;99.90
7030;DHT22;3556;53.500;10.176;2024-01-30T10:39:53;7.10;99.90
7030;DHT22;3556;53.500;10.176;2024-01-30T10:42:20;7.20;99.90
7030;DHT22;3556;53.500;10.176;2024-01-30T10:47:29;7.40;99.90
7030;DHT22;3556;53.500;10.176;2024-01-30T10:49:55;7.40;99.90
7030;DHT22;3556;53.500;10.176;2024-01-30T10:52:23;7.50;99.90
7030;DHT22;3556;53.500;10.176;2024-01-30T10:54:50;7.60;99.90
7030;DHT22;3556;53.500;10.176;2024-01-30T10:57:17;7.70;99.90
7030;DHT22;3556;53.500;10.176;2024-01-30T10:59:43;7.80;79.30
7030;DHT22;3556;53.500;10.176;2024-01-30T11:02:10;7.80;48.00
7030;DHT22;3556;53.500;10.176;2024-01-30T11:04:45;7.80;1.00
7030;DHT22;3556;53.500;10.176;2024-01-30T11:07:19;7.90;25.80
7030;DHT22;3556;53.500;10.176;2024-01-30T11:10:09;7.90;29.20
7030;DHT22;3556;53.500;10.176;2024-01-30T11:12:41;8.00;6.20
7030;DHT22;3556;53.500;10.176;2024-01-30T11:15:14;8.10;1.00
7030;DHT22;3556;53.500;10.176;2024-01-30T11:20:16;8.20;1.00
7030;DHT22;3556;53.500;10.176;2024-01-30T11:22:44;8.20;1.00
7030;DHT22;3556;53.500;10.176;2024-01-30T11:25:18;8.30;1.00
7030;DHT22;3556;53.500;10.176;2024-01-30T11:27:45;8.40;1.00
7030;DHT22;3556;53.500;10.176;2024-01-30T11:30:30;8.40;1.00
7030;DHT22;3556;53.500;10.176;2024-01-30T11:33:09;8.40;1.00
7030;DHT22;3556;53.500;10.176;2024-01-30T11:38:04;8.50;1.00
7030;DHT22;3556;53.500;10.176;2024-01-30T11:40:30;8.60;1.00
7030;DHT22;3556;53.500;10.176;2024-01-30T11:42:58;8.60;1.00
7030;DHT22;3556;53.500;10.176;2024-01-30T11:45:24;8.60;1.00
7030;DHT22;3556;53.500;10.176;2024-01-30T11:47:50;8.70;1.00
7030;DHT22;3556;53.500;10.176;2024-01-30T11:50:15;8.70;1.00
7030;DHT22;3556;53.500;10.176;2024-01-30T11:52:41;8.80;1.00
7030;DHT22;3556;53.500;10.176;2024-01-30T11:55:09;8.80;1.00
7030;DHT22;3556;53.500;10.176;2024-01-30T11:57:35;8.80;1.00
7030;DHT22;3556;53.500;10.176;2024-01-30T12:00:02;8.80;1.00
7030;DHT22;3556;53.500;10.176;2024-01-30T12:02:30;8.90;1.00
7030;DHT22;3556;53.500;10.176;2024-01-30T12:04:55;8.80;1.00
7030;DHT22;3556;53.500;10.176;2024-01-30T12:07:21;8.90;1.00
7030;DHT22;3556;53.500;10.176;2024-01-30T12:09:53;8.90;1.00
7030;DHT22;3556;53.500;10.176;2024-01-30T12:12:22;8.90;1.00
7030;DHT22;3556;53.500;10.176;2024-01-30T12:14:48;9.00;1.00
7030;DHT22;3556;53.500;10.176;2024-01-30T12:17:32;9.00;1.00
7030;DHT22;3556;53.500;10.176;2024-01-30T12:20:12;9.10;1.00
7030;DHT22;3556;53.500;10.176;2024-01-30T12:22:40;9.20;1.00
7030;DHT22;3556;53.500;10.176;2024-01-30T12:25:13;9.20;1.00
7030;DHT22;3556;53.500;10.176;2024-01-30T12:27:41;9.20;1.00
7030;DHT22;3556;53.500;10.176;2024-01-30T12:30:09;9.20;1.00
7030;DHT22;3556;53.500;10.176;2024-01-30T12:32:46;9.30;1.00
7030;DHT22;3556;53.500;10.176;2024-01-30T12:35:14;9.30;1.00
7030;DHT22;3556;53.500;10.176;2024-01-30T12:37:41;9.30;1.00
7030;DHT22;3556;53.500;10.176;2024-01-30T12:40:10;9.30;1.00
7030;DHT22;3556;53.500;10.176;2024-01-30T12:42:36;9.30;1.00
7030;DHT22;3556;53.500;10.176;2024-01-30T12:45:03;9.40;1.00
7030;DHT22;3556;53.500;10.176;2024-01-30T12:47:29;9.40;1.00
7030;DHT22;3556;53.500;10.176;2024-01-30T12:49:55;9.40;1.00
7030;DHT22;3556;53.500;10.176;2024-01-30T12:52:21;9.40;1.00
7030;DHT22;3556;53.500;10.176;2024-01-30T12:54:50;9.50;1.00
7030;DHT22;3556;53.500;10.176;2024-01-30T12:57:16;9.60;1.00
7030;DHT22;3556;53.500;10.176;2024-01-30T12:59:43;9.60;1.00
7030;DHT22;3556;53.500;10.176;2024-01-30T13:02:09;9.60;1.00
7030;DHT22;3556;53.500;10.176;2024-01-30T13:04:35;9.60;1.00
7030;DHT22;3556;53.500;10.176;2024-01-30T13:07:00;9.60;1.00
7030;DHT22;3556;53.500;10.176;2024-01-30T13:09:26;9.70;1.00
7030;DHT22;3556;53.500;10.176;2024-01-30T13:11:52;9.70;1.00
7030;DHT22;3556;53.500;10.176;2024-01-30T13:14:18;9.70;1.00
7030;DHT22;3556;53.500;10.176;2024-01-30T13:16:44;9.70;1.00
7030;DHT22;3556;53.500;10.176;2024-01-30T13:19:10;9.70;1.00
7030;DHT22;3556;53.500;10.176;2024-01-30T13:21:36;9.70;1.00
7030;DHT22;3556;53.500;10.176;2024-01-30T13:24:02;9.70;1.00
7030;DHT22;3556;53.500;10.176;2024-01-30T13:26:27;9.70;1.00
7030;DHT22;3556;53.500;10.176;2024-01-30T13:28:53;9.80;1.00
7030;DHT22;3556;53.500;10.176;2024-01-30T13:31:19;9.80;1.00
7030;DHT22;3556;53.500;10.176;2024-01-30T13:33:45;9.80;1.00
7030;DHT22;3556;53.500;10.176;2024-01-30T13:36:11;9.80;1.00
7030;DHT22;3556;53.500;10.176;2024-01-30T13:38:38;9.80;1.00
7030;DHT22;3556;53.500;10.176;2024-01-30T13:41:04;9.80;1.00
7030;DHT22;3556;53.500;10.176;2024-01-30T13:43:30;9.80;1.00
7030;DHT22;3556;53.500;10.176;2024-01-30T13:45:56;9.90;1.00
7030;DHT22;3556;53.500;10.176;2024-01-30T13:48:21;9.80;1.00
7030;DHT22;3556;53.500;10.176;2024-01-30T13:50:47;9.80;1.00
7030;DHT22;3556;53.500;10.176;2024-01-30T13:53:13;9.80;1.00
7030;DHT22;3556;53.500;10.176;2024-01-30T13:55:39;9.80;1.00
7030;DHT22;3556;53.500;10.176;2024-01-30T13:58:05;9.80;1.00
7030;DHT22;3556;53.500;10.176;2024-01-30T14:00:31;9.80;1.00
7030;DHT22;3556;53.500;10.176;2024-01-30T14:02:57;9.80;1.00
7030;DHT22;3556;53.500;10.176;2024-01-30T14:05:24;9.80;1.00
7030;DHT22;3556;53.500;10.176;2024-01-30T14:07:51;9.80;1.00
7030;DHT22;3556;53.500;10.176;2024-01-30T14:10:17;9.80;1.00
7030;DHT22;3556;53.500;10.176;2024-01-30T14:12:43;9.80;1.00
7030;DHT22;3556;53.500;10.176;2024-01-30T14:15:10;9.80;6.00
7030;DHT22;3556;53.500;10.176;2024-01-30T14:17:36;9.80;2.00
7030;DHT22;3556;53.500;10.176;2024-01-30T14:20:06;9.70;13.60
7030;DHT22;3556;53.500;10.176;2024-01-30T14:22:33;9.70;16.10
7030;DHT22;3556;53.500;10.176;2024-01-30T14:25:03;9.80;18.10
7030;DHT22;3556;53.500;10.176;2024-01-30T14:27:29;9.80;23.70
7030;DHT22;3556;53.500;10.176;2024-01-30T14:29:56;9.80;39.50
7030;DHT22;3556;53.500;10.176;2024-01-30T14:32:22;9.80;43.50
7030;DHT22;3556;53.500;10.176;2024-01-30T14:34:49;9.80;47.80
7030;DHT22;3556;53.500;10.176;2024-01-30T14:37:14;9.80;62.90
7030;DHT22;3556;53.500;10.176;2024-01-30T14:39:40;9.80;48.60
7030;DHT22;3556;53.500;10.176;2024-01-30T14:42:06;9.70;55.60
7030;DHT22;3556;53.500;10.176;2024-01-30T14:44:32;9.70;67.20
7030;DHT22;3556;53.500;10.176;2024-01-30T14:46:59;9.70;56.80
7030;DHT22;3556;53.500;10.176;2024-01-30T14:49:25;9.70;64.60
7030;DHT22;3556;53.500;10.176;2024-01-30T14:51:50;9.70;64.40
7030;DHT22;3556;53.500;10.176;2024-01-30T14:54:16;9.70;68.40
7030;DHT22;3556;53.500;10.176;2024-01-30T14:56:42;9.70;70.30
7030;DHT22;3556;53.500;10.176;2024-01-30T14:59:08;9.70;72.50
7030;DHT22;3556;53.500;10.176;2024-01-30T15:01:33;9.70;73.20
7030;DHT22;3556;53.500;10.176;2024-01-30T15:03:59;9.70;73.40
7030;DHT22;3556;53.500;10.176;2024-01-30T15:06:24;9.80;77.90
7030;DHT22;3556;53.500;10.176;2024-01-30T15:08:51;9.80;76.10
7030;DHT22;3556;53.500;10.176;2024-01-30T15:11:17;9.80;88.90
7030;DHT22;3556;53.500;10.176;2024-01-30T15:13:43;9.80;78.50
7030;DHT22;3556;53.500;10.176;2024-01-30T15:16:08;9.80;84.50
7030;DHT22;3556;53.500;10.176;2024-01-30T15:18:34;9.80;94.80
7030;DHT22;3556;53.500;10.176;2024-01-30T15:21:00;9.70;97.00
7030;DHT22;3556;53.500;10.176;2024-01-30T15:23:26;9.80;99.90
7030;DHT22;3556;53.500;10.176;2024-01-30T15:25:51;9.80;99.90
7030;DHT22;3556;53.500;10.176;2024-01-30T15:28:17;9.80;99.90
7030;DHT22;3556;53.500;10.176;2024-01-30T15:30:42;9.70;99.90
7030;DHT22;3556;53.500;10.176;2024-01-30T15:33:13;9.80;99.90
7030;DHT22;3556;53.500;10.176;2024-01-30T15:35:38;9.80;99.90
7030;DHT22;3556;53.500;10.176;2024-01-30T15:38:05;9.80;99.90
7030;DHT22;3556;53.500;10.176;2024-01-30T15:40:35;9.80;99.90
7030;DHT22;3556;53.500;10.176;2024-01-30T15:43:00;9.80;99.90
7030;DHT22;3556;53.500;10.176;2024-01-30T15:45:26;9.80;99.90
7030;DHT22;3556;53.500;10.176;2024-01-30T15:47:51;9.70;99.90
7030;DHT22;3556;53.500;10.176;2024-01-30T15:50:17;9.80;99.90
7030;DHT22;3556;53.500;10.176;2024-01-30T15:52:43;9.80;99.90
7030;DHT22;3556;53.500;10.176;2024-01-30T15:55:08;9.80;99.90
7030;DHT22;3556;53.500;10.176;2024-01-30T15:57:34;9.70;99.90
7030;DHT22;3556;53.500;10.176;2024-01-30T15:59:59;9.70;99.90
7030;DHT22;3556;53.500;10.176;2024-01-30T16:02:26;9.70;99.90
7030;DHT22;3556;53.500;10.176;2024-01-30T16:04:52;9.70;99.90
7030;DHT22;3556;53.500;10.176;2024-01-30T16:07:17;9.70;99.90